Kimberley, Canada
Current Conditions -  °F | °C
As of 2:00 AM on Saturday 01 Nov 2014 (Local Time) from CYXC Reporting Station
Overcast Overcast  
Wind Chill:   Ceiling: 8000
Heat Index:   Visibility: 20mi
Dew Point:   Wind: 0mph
Humidity: 81%   Direction: NA
Pressure: 29.74"   Gusts: NA
Location:  49.68°N, 115.98°W
Report Text: CYXC 010800Z 00000KT 20SM BKN080 OVC130 07/04 A2974 RMK AC5AC3 SLP083
Loading
Personal Weather Stations






























Interactive Weather Map
Tropical Storm Tracking
New forecast layout! Learn more

10-Day Weather Forecast

Advertisements
Track Severe Weather on mobile